createdAt,value
2019-05-30T00:00:30.655Z,47.03
2019-05-30T00:01:30.651Z,46.73
2019-05-30T00:02:30.661Z,47.03
2019-05-30T00:03:30.655Z,46.93
2019-05-30T00:04:30.621Z,46.83
2019-05-30T00:05:30.602Z,47.03
2019-05-30T00:06:30.602Z,47.03
2019-05-30T00:07:30.614Z,46.83
2019-05-30T00:08:30.575Z,46.83
2019-05-30T00:09:30.565Z,46.73
2019-05-30T00:10:30.553Z,47.03
2019-05-30T00:11:30.546Z,46.83
2019-05-30T00:12:30.545Z,46.73
2019-05-30T00:13:30.521Z,47.03
2019-05-30T00:14:30.515Z,46.83
2019-05-30T00:15:30.509Z,46.93
2019-05-30T00:16:30.489Z,46.83
2019-05-30T00:17:30.496Z,46.83
2019-05-30T00:18:30.482Z,46.83
2019-05-30T00:19:33.764Z,46.73
2019-05-30T00:20:30.449Z,46.73
2019-05-30T00:21:30.439Z,47.03
2019-05-30T00:22:30.443Z,46.73
2019-05-30T00:23:30.425Z,47.03
2019-05-30T00:24:30.401Z,46.83
2019-05-30T00:25:30.403Z,46.95
2019-05-30T00:26:30.411Z,46.93
2019-05-30T00:27:30.392Z,46.83
2019-05-30T00:28:30.365Z,47.03
2019-05-30T00:29:30.357Z,46.73
2019-05-30T00:30:30.340Z,47.03
2019-05-30T00:31:30.328Z,46.83
2019-05-30T00:32:30.335Z,46.73
2019-05-30T00:33:30.311Z,47.25
2019-05-30T00:34:30.305Z,46.93
2019-05-30T00:35:30.288Z,46.93
2019-05-30T00:36:30.294Z,46.93
2019-05-30T00:37:30.286Z,47.03
2019-05-30T00:38:30.280Z,47.15
2019-05-30T00:39:30.245Z,47.15
2019-05-30T00:40:30.236Z,47.03
2019-05-30T00:41:30.229Z,47.15
2019-05-30T00:42:30.228Z,46.93
2019-05-30T00:43:30.202Z,47.13
2019-05-30T00:44:30.192Z,47.03
2019-05-30T00:45:30.188Z,46.83
2019-05-30T00:46:30.172Z,46.85
2019-05-30T00:47:30.177Z,47.05
2019-05-30T00:48:30.152Z,47.15
2019-05-30T00:49:30.156Z,46.95
2019-05-30T00:50:30.129Z,46.95
2019-05-30T00:51:30.124Z,46.75
2019-05-30T00:52:30.133Z,46.85
2019-05-30T00:53:30.101Z,46.83
2019-05-30T00:54:30.089Z,46.75
2019-05-30T00:55:30.086Z,46.85
2019-05-30T00:56:30.069Z,46.95
2019-05-30T00:57:30.073Z,46.85
2019-05-30T00:58:30.053Z,46.95
2019-05-30T00:59:30.039Z,47.05
2019-05-30T01:00:42.913Z,46.95
2019-05-30T01:01:31.017Z,46.75
2019-05-30T01:02:30.033Z,46.75
2019-05-30T01:03:29.995Z,46.95
2019-05-30T01:04:29.984Z,47.05
2019-05-30T01:05:29.968Z,46.75
2019-05-30T01:06:29.966Z,46.95
2019-05-30T01:07:29.970Z,46.75
2019-05-30T01:08:29.940Z,46.85
2019-05-30T01:09:29.935Z,46.75
2019-05-30T01:10:29.917Z,46.55
2019-05-30T01:11:29.909Z,46.75
2019-05-30T01:12:29.915Z,46.75
2019-05-30T01:13:29.894Z,46.75
2019-05-30T01:14:29.883Z,46.75
2019-05-30T01:15:29.870Z,47.25
2019-05-30T01:16:29.858Z,47.35
2019-05-30T01:17:29.862Z,46.85
2019-05-30T01:18:29.835Z,47.35
2019-05-30T01:19:29.827Z,47.45
2019-05-30T01:20:29.823Z,46.75
2019-05-30T01:21:29.810Z,47.25
2019-05-30T01:22:29.810Z,46.85
2019-05-30T01:23:29.787Z,47.35
2019-05-30T01:24:29.782Z,47.45
2019-05-30T01:25:29.762Z,46.75
2019-05-30T01:26:29.754Z,46.75
2019-05-30T01:27:29.756Z,47.25
2019-05-30T01:28:29.733Z,46.75
2019-05-30T01:29:29.718Z,47.35
2019-05-30T01:30:29.712Z,47.58
2019-05-30T01:31:29.702Z,46.85
2019-05-30T01:32:29.741Z,47.35
2019-05-30T01:33:29.684Z,47.45
2019-05-30T01:34:29.663Z,47.47
2019-05-30T01:35:29.741Z,46.87
2019-05-30T01:36:29.653Z,47.45
2019-05-30T01:37:29.664Z,47.27
2019-05-30T01:38:29.629Z,47.25
2019-05-30T01:39:29.617Z,47.45
2019-05-30T01:40:29.605Z,46.57
2019-05-30T01:41:29.600Z,46.75
2019-05-30T01:42:29.591Z,46.45
2019-05-30T01:43:29.585Z,47.35
2019-05-30T01:44:29.559Z,47.05
2019-05-30T01:45:29.554Z,46.85
2019-05-30T01:46:29.646Z,47.35
2019-05-30T01:47:29.537Z,46.45
2019-05-30T01:48:29.531Z,47.38
2019-05-30T01:49:29.521Z,47.38
2019-05-30T01:50:29.502Z,46.77
2019-05-30T01:51:29.511Z,47.38
2019-05-30T01:52:29.486Z,47.35
2019-05-30T01:53:29.491Z,47.35
2019-05-30T01:54:29.455Z,47.38
2019-05-30T01:55:29.447Z,47.25
2019-05-30T01:56:29.438Z,47.17
2019-05-30T01:57:29.423Z,47.27
2019-05-30T01:58:29.414Z,47.38
2019-05-30T01:59:29.421Z,47.17
2019-05-30T02:00:29.427Z,47.27
2019-05-30T02:01:29.395Z,47.47
2019-05-30T02:02:29.384Z,46.87
2019-05-30T02:03:29.363Z,47.67
2019-05-30T02:04:29.372Z,46.67
2019-05-30T02:05:29.337Z,46.87
2019-05-30T02:06:29.329Z,46.77
2019-05-30T02:07:29.318Z,47.47
2019-05-30T02:08:29.311Z,47.38
2019-05-30T02:09:29.306Z,47.38
2019-05-30T02:10:29.300Z,47.38
2019-05-30T02:11:29.272Z,47.58
2019-05-30T02:12:29.267Z,47.77
2019-05-30T02:13:29.262Z,47.67
2019-05-30T02:14:29.246Z,47.77
2019-05-30T02:15:29.249Z,47.77
2019-05-30T02:16:29.228Z,47.58
2019-05-30T02:17:29.212Z,47.67
2019-05-30T02:18:29.205Z,47.38
2019-05-30T02:19:29.199Z,47.47
2019-05-30T02:20:29.192Z,47.38
2019-05-30T02:21:29.169Z,47.27
2019-05-30T02:22:29.158Z,47.58
2019-05-30T02:23:29.153Z,47.77
2019-05-30T02:24:29.144Z,47.38
2019-05-30T02:25:29.141Z,47.38
2019-05-30T02:26:29.118Z,47.58
2019-05-30T02:27:29.119Z,47.38
2019-05-30T02:28:29.108Z,47.47
2019-05-30T02:29:29.089Z,47.47
2019-05-30T02:30:29.111Z,47.27
2019-05-30T02:31:38.997Z,47.38
2019-05-30T02:32:30.053Z,47.47
2019-05-30T02:33:29.043Z,47.38
2019-05-30T02:34:29.027Z,47.27
2019-05-30T02:35:29.036Z,47.58
2019-05-30T02:36:29.032Z,47.27
2019-05-30T02:37:29.002Z,47.47
2019-05-30T02:38:28.995Z,47.38
2019-05-30T02:39:28.979Z,47.47
2019-05-30T02:40:28.989Z,47.27
2019-05-30T02:41:28.957Z,47.67
2019-05-30T02:42:28.947Z,47.67
2019-05-30T02:43:28.964Z,47.47
2019-05-30T02:44:28.926Z,47.27
2019-05-30T02:45:28.932Z,47.39
2019-05-30T02:46:28.907Z,47.47
2019-05-30T02:47:28.893Z,47.27
2019-05-30T02:48:28.883Z,47.77
2019-05-30T02:49:28.883Z,47.30
2019-05-30T02:50:28.879Z,47.30
2019-05-30T02:51:28.858Z,47.67
2019-05-30T02:52:28.851Z,47.70
2019-05-30T02:53:28.831Z,47.50
2019-05-30T02:54:28.819Z,47.58
2019-05-30T02:55:28.852Z,47.09
2019-05-30T02:56:28.800Z,47.30
2019-05-30T02:57:28.827Z,47.09
2019-05-30T02:58:28.782Z,47.07
2019-05-30T02:59:28.779Z,47.77
2019-05-30T03:00:28.793Z,47.19
2019-05-30T03:01:28.797Z,47.09
2019-05-30T03:02:28.753Z,47.30
2019-05-30T03:03:28.739Z,47.30
2019-05-30T03:04:28.713Z,47.27
2019-05-30T03:05:28.708Z,47.27
2019-05-30T03:06:28.711Z,47.30
2019-05-30T03:07:28.686Z,47.30
2019-05-30T03:08:28.679Z,47.19
2019-05-30T03:09:28.666Z,47.47
2019-05-30T03:10:28.656Z,47.30
2019-05-30T03:11:28.655Z,47.09
2019-05-30T03:12:28.631Z,47.80
2019-05-30T03:13:28.619Z,47.39
2019-05-30T03:14:28.610Z,47.09
2019-05-30T03:15:28.596Z,47.07
2019-05-30T03:16:28.616Z,47.30
2019-05-30T03:17:28.577Z,47.39
2019-05-30T03:18:28.561Z,47.30
2019-05-30T03:19:28.559Z,47.09
2019-05-30T03:20:28.541Z,47.39
2019-05-30T03:21:28.568Z,47.27
2019-05-30T03:22:28.522Z,47.30
2019-05-30T03:23:28.533Z,47.00
2019-05-30T03:24:28.502Z,47.19
2019-05-30T03:25:28.491Z,47.70
2019-05-30T03:26:28.506Z,47.30
2019-05-30T03:27:28.467Z,47.30
2019-05-30T03:28:28.454Z,47.09
2019-05-30T03:29:28.448Z,47.39
2019-05-30T03:30:29.929Z,47.39
2019-05-30T03:31:29.915Z,47.09
2019-05-30T03:33:02.071Z,47.39
2019-05-30T03:33:39.053Z,47.30
2019-05-30T03:34:29.743Z,47.30
2019-05-30T03:35:32.768Z,47.09
2019-05-30T03:36:31.718Z,47.19
2019-05-30T03:37:30.288Z,47.19
2019-05-30T03:38:28.360Z,47.00
2019-05-30T03:39:28.343Z,47.00
2019-05-30T03:40:30.275Z,47.30
2019-05-30T03:41:28.342Z,47.39
2019-05-30T03:42:28.310Z,47.30
2019-05-30T03:43:28.318Z,47.39
2019-05-30T03:44:28.295Z,47.19
2019-05-30T03:45:28.283Z,47.19
2019-05-30T03:46:28.284Z,47.19
2019-05-30T03:47:28.266Z,47.19
2019-05-30T03:48:28.247Z,47.39
2019-05-30T03:49:28.911Z,47.30
2019-05-30T03:50:28.226Z,47.19
2019-05-30T03:51:28.250Z,47.39
2019-05-30T03:52:28.205Z,47.19
2019-05-30T03:53:28.191Z,47.39
2019-05-30T03:54:28.183Z,47.19
2019-05-30T03:55:28.176Z,47.19
2019-05-30T03:56:28.165Z,47.09
2019-05-30T03:57:28.167Z,47.39
2019-05-30T03:58:28.143Z,47.00
2019-05-30T03:59:28.144Z,47.39
2019-05-30T04:00:28.921Z,47.19
2019-05-30T04:01:28.113Z,47.19
2019-05-30T04:02:28.158Z,47.90
2019-05-30T04:03:28.088Z,47.80
2019-05-30T04:04:28.080Z,47.30
2019-05-30T04:05:28.065Z,47.09
2019-05-30T04:06:28.053Z,47.09
2019-05-30T04:07:28.059Z,47.09
2019-05-30T04:08:28.030Z,47.30
2019-05-30T04:09:28.035Z,47.39
2019-05-30T04:10:28.019Z,47.30
2019-05-30T04:11:28.008Z,47.09
2019-05-30T04:12:28.004Z,47.09
2019-05-30T04:13:27.984Z,47.09
2019-05-30T04:14:27.983Z,47.09
2019-05-30T04:15:27.959Z,47.30
2019-05-30T04:16:27.955Z,47.09
2019-05-30T04:17:27.954Z,48.50
2019-05-30T04:18:27.928Z,49.40
2019-05-30T04:19:27.941Z,49.10
2019-05-30T04:20:27.906Z,50.11
2019-05-30T04:21:27.911Z,48.90
2019-05-30T04:22:27.900Z,49.21
2019-05-30T04:23:27.886Z,49.10
2019-05-30T04:24:27.879Z,50.31
2019-05-30T04:25:27.857Z,49.30
2019-05-30T04:26:27.900Z,49.40
2019-05-30T04:27:27.857Z,50.71
2019-05-30T04:28:27.830Z,51.11
2019-05-30T04:29:27.811Z,49.60
2019-05-30T04:30:27.802Z,49.40
2019-05-30T04:31:27.796Z,50.41
2019-05-30T04:32:27.790Z,49.80
2019-05-30T04:33:32.969Z,49.51
2019-05-30T04:34:28.761Z,49.01
2019-05-30T04:35:27.761Z,49.60
2019-05-30T04:36:27.743Z,49.51
2019-05-30T04:37:27.727Z,49.21
2019-05-30T04:38:27.727Z,49.40
2019-05-30T04:39:27.728Z,49.10
2019-05-30T04:40:27.693Z,49.01
2019-05-30T04:41:27.686Z,49.40
2019-05-30T04:42:27.676Z,49.21
2019-05-30T04:43:27.810Z,49.10
2019-05-30T04:44:27.673Z,49.02
2019-05-30T04:45:28.561Z,49.21
2019-05-30T04:46:27.639Z,48.93
2019-05-30T04:47:27.619Z,48.90
2019-05-30T04:48:27.626Z,48.93
2019-05-30T04:49:27.606Z,49.01
2019-05-30T04:50:27.590Z,49.13
2019-05-30T04:51:27.579Z,49.02
2019-05-30T04:52:27.570Z,48.22
2019-05-30T04:53:27.578Z,48.12
2019-05-30T04:54:27.545Z,47.32
2019-05-30T04:55:27.540Z,47.42
2019-05-30T04:56:27.525Z,47.62
2019-05-30T04:57:27.523Z,48.02
2019-05-30T04:58:27.531Z,47.92
2019-05-30T04:59:27.499Z,48.00
2019-05-30T05:00:27.497Z,48.12
2019-05-30T05:01:27.481Z,48.02
2019-05-30T05:02:27.468Z,47.42
2019-05-30T05:03:44.038Z,47.32
2019-05-30T05:04:28.455Z,47.32
2019-05-30T05:05:27.434Z,47.72
2019-05-30T05:06:27.422Z,47.32
2019-05-30T05:07:28.393Z,47.32
2019-05-30T05:08:27.418Z,47.42
2019-05-30T05:09:27.398Z,47.52
2019-05-30T05:10:27.390Z,48.02
2019-05-30T05:11:27.372Z,47.92
2019-05-30T05:12:27.361Z,48.50
2019-05-30T05:13:27.360Z,48.52
2019-05-30T05:14:27.334Z,47.32
2019-05-30T05:15:27.325Z,47.90
2019-05-30T05:16:35.365Z,47.70
2019-05-30T05:17:28.312Z,47.30
2019-05-30T05:18:27.309Z,47.72
2019-05-30T05:19:27.284Z,47.30
2019-05-30T05:20:27.275Z,47.60
2019-05-30T05:21:27.262Z,47.90
2019-05-30T05:22:27.252Z,47.50
2019-05-30T05:23:27.252Z,47.80
2019-05-30T05:24:27.230Z,47.62
2019-05-30T05:25:27.217Z,47.70
2019-05-30T05:26:27.209Z,47.70
2019-05-30T05:27:27.200Z,47.39
2019-05-30T05:28:27.204Z,48.50
2019-05-30T05:29:27.176Z,48.20
2019-05-30T05:30:27.166Z,48.30
2019-05-30T05:31:27.157Z,48.60
2019-05-30T05:32:27.143Z,47.19
2019-05-30T05:33:27.145Z,47.60
2019-05-30T05:34:27.119Z,48.00
2019-05-30T05:35:27.111Z,47.39
2019-05-30T05:36:27.116Z,47.09
2019-05-30T05:37:27.406Z,47.38
2019-05-30T05:38:28.418Z,47.09
2019-05-30T05:39:27.073Z,47.09
2019-05-30T05:40:27.062Z,46.67
2019-05-30T05:41:28.472Z,46.59
2019-05-30T05:42:29.108Z,46.09
2019-05-30T05:43:27.030Z,45.97
2019-05-30T05:44:27.046Z,46.59
2019-05-30T05:45:27.005Z,46.09
2019-05-30T05:46:26.990Z,45.59
2019-05-30T05:47:26.990Z,45.99
2019-05-30T05:48:26.990Z,45.29
2019-05-30T05:49:26.983Z,44.48
2019-05-30T05:50:26.952Z,44.59
2019-05-30T05:51:26.952Z,44.36
2019-05-30T05:52:26.933Z,45.87
2019-05-30T05:53:26.929Z,45.49
2019-05-30T05:54:26.927Z,46.09
2019-05-30T05:55:26.906Z,46.77
2019-05-30T05:56:26.896Z,47.58
2019-05-30T05:57:26.882Z,48.08
2019-05-30T05:58:26.876Z,47.47
2019-05-30T05:59:26.878Z,48.35
2019-05-30T06:00:26.853Z,48.08
2019-05-30T06:01:26.967Z,47.88
2019-05-30T06:02:27.238Z,47.88
2019-05-30T06:03:26.922Z,47.97
2019-05-30T06:04:27.363Z,47.47
2019-05-30T06:05:26.841Z,47.58
2019-05-30T06:06:27.376Z,47.35
2019-05-30T06:07:26.834Z,46.57
2019-05-30T06:08:27.710Z,47.15
2019-05-30T06:09:26.841Z,47.05
2019-05-30T06:10:27.974Z,46.95
2019-05-30T06:11:26.842Z,46.95
2019-05-30T06:12:27.917Z,46.75
2019-05-30T06:13:27.554Z,47.67
2019-05-30T06:14:28.130Z,47.85
2019-05-30T06:15:26.756Z,47.25
2019-05-30T06:16:26.706Z,48.96
2019-05-30T06:17:26.742Z,48.35
2019-05-30T06:18:26.712Z,49.26
2019-05-30T06:19:27.481Z,49.36
2019-05-30T06:20:27.399Z,49.04
2019-05-30T06:21:27.540Z,49.16
2019-05-30T06:22:27.617Z,48.93
2019-05-30T06:23:27.797Z,49.04
2019-05-30T06:24:27.920Z,47.93
2019-05-30T06:25:30.415Z,47.83
2019-05-30T06:26:28.017Z,47.33
2019-05-30T06:27:26.640Z,48.03
2019-05-30T06:28:26.624Z,46.53
2019-05-30T06:29:26.681Z,47.03
2019-05-30T06:30:26.617Z,45.22
2019-05-30T06:31:26.675Z,45.12
2019-05-30T06:32:26.802Z,44.95
2019-05-30T06:33:27.172Z,44.22
2019-05-30T06:34:38.110Z,44.14
2019-05-30T06:35:27.594Z,43.64
2019-05-30T06:36:27.262Z,42.33
2019-05-30T06:37:27.306Z,42.54
2019-05-30T06:38:27.389Z,42.13
2019-05-30T06:39:27.597Z,42.13
2019-05-30T06:40:30.384Z,42.03
2019-05-30T06:41:27.760Z,42.24
2019-05-30T06:42:26.402Z,42.24
2019-05-30T06:43:26.396Z,42.94
2019-05-30T06:44:26.439Z,42.94
2019-05-30T06:45:26.856Z,43.14
2019-05-30T06:46:26.360Z,42.33
2019-05-30T06:47:26.383Z,42.54
2019-05-30T06:48:26.884Z,42.54
2019-05-30T06:49:26.755Z,42.54
2019-05-30T06:50:26.849Z,42.54
2019-05-30T06:51:26.947Z,42.63
2019-05-30T06:52:27.075Z,42.54
2019-05-30T06:53:27.262Z,42.54
2019-05-30T06:54:27.732Z,42.54
2019-05-30T06:55:27.299Z,42.54
2019-05-30T06:56:27.395Z,42.44
2019-05-30T06:57:27.246Z,42.54
2019-05-30T06:58:41.567Z,42.54
2019-05-30T06:59:27.672Z,42.54
2019-05-30T07:00:26.555Z,43.04
2019-05-30T07:01:26.207Z,42.54
2019-05-30T07:02:26.398Z,42.54
2019-05-30T07:03:26.427Z,42.33
2019-05-30T07:04:27.838Z,42.54
2019-05-30T07:05:27.883Z,42.63
2019-05-30T07:06:27.530Z,42.54
2019-05-30T07:07:27.045Z,42.54
2019-05-30T07:08:26.739Z,42.44
2019-05-30T07:09:26.778Z,42.63
2019-05-30T07:10:26.786Z,43.14
2019-05-30T07:11:26.781Z,42.54
2019-05-30T07:12:27.482Z,42.54
2019-05-30T07:13:27.273Z,43.14
2019-05-30T07:14:27.181Z,42.94
2019-05-30T07:15:27.153Z,42.94
2019-05-30T07:16:27.260Z,42.63
2019-05-30T07:17:27.103Z,42.94
2019-05-30T07:18:26.019Z,42.63
2019-05-30T07:19:26.012Z,42.63
2019-05-30T07:20:26.011Z,43.14
2019-05-30T07:21:25.990Z,42.74
2019-05-30T07:22:25.977Z,42.91
2019-05-30T07:23:25.965Z,42.61
2019-05-30T07:24:25.961Z,42.63
2019-05-30T07:25:25.970Z,42.82
2019-05-30T07:26:25.946Z,42.91
2019-05-30T07:27:26.189Z,42.21
2019-05-30T07:28:25.930Z,42.44
2019-05-30T07:29:25.905Z,42.11
2019-05-30T07:30:25.952Z,42.13
2019-05-30T07:31:26.081Z,42.11
2019-05-30T07:32:25.900Z,42.52
2019-05-30T07:33:26.056Z,42.13
2019-05-30T07:34:25.982Z,42.11
2019-05-30T07:35:26.011Z,42.21
2019-05-30T07:36:26.107Z,42.21
2019-05-30T07:37:26.243Z,42.11
2019-05-30T07:38:26.349Z,42.52
2019-05-30T07:39:27.356Z,42.11
2019-05-30T07:40:26.594Z,41.91
2019-05-30T07:41:26.801Z,41.93
2019-05-30T07:42:26.534Z,42.41
2019-05-30T07:43:27.964Z,41.71
2019-05-30T07:44:26.657Z,42.32
2019-05-30T07:45:26.788Z,42.02
2019-05-30T07:46:26.773Z,41.91
2019-05-30T07:47:26.046Z,42.11
2019-05-30T07:48:26.021Z,42.21
2019-05-30T07:49:26.261Z,41.91
2019-05-30T07:50:26.272Z,41.71
2019-05-30T07:51:26.362Z,41.91
2019-05-30T07:52:26.457Z,42.02
2019-05-30T07:53:26.638Z,42.02
2019-05-30T07:54:26.849Z,41.71
2019-05-30T07:55:26.882Z,41.61
2019-05-30T07:56:26.881Z,42.02
2019-05-30T07:57:26.101Z,42.11
2019-05-30T07:58:25.598Z,42.02
2019-05-30T07:59:26.368Z,41.61
2019-05-30T08:00:25.577Z,41.82
2019-05-30T08:01:26.320Z,41.71
2019-05-30T08:02:25.551Z,42.02
2019-05-30T08:03:26.451Z,41.11
2019-05-30T08:04:25.534Z,41.71
2019-05-30T08:05:26.635Z,42.02
2019-05-30T08:06:25.526Z,42.21
2019-05-30T08:07:26.562Z,42.02
2019-05-30T08:08:25.495Z,41.31
2019-05-30T08:09:26.709Z,41.71
2019-05-30T08:10:25.469Z,41.82
2019-05-30T08:11:26.690Z,41.91
2019-05-30T08:12:25.456Z,41.61
2019-05-30T08:13:25.435Z,41.41
2019-05-30T08:14:25.445Z,42.02
2019-05-30T08:15:25.421Z,41.82
2019-05-30T08:16:25.424Z,41.82
2019-05-30T08:17:25.394Z,41.61
2019-05-30T08:18:25.383Z,41.51
2019-05-30T08:19:25.431Z,41.51
2019-05-30T08:20:25.365Z,41.91
2019-05-30T08:21:25.381Z,41.41
2019-05-30T08:22:25.347Z,41.71
2019-05-30T08:23:25.333Z,41.82
2019-05-30T08:24:25.358Z,41.51
2019-05-30T08:25:25.313Z,41.82
2019-05-30T08:26:25.325Z,41.61
2019-05-30T08:27:25.288Z,41.11
2019-05-30T08:28:25.281Z,41.21
2019-05-30T08:29:25.266Z,41.41
2019-05-30T08:30:25.253Z,41.21
2019-05-30T08:31:25.261Z,41.11
2019-05-30T08:32:25.233Z,41.51
2019-05-30T08:33:25.226Z,41.21
2019-05-30T08:34:25.214Z,41.60
2019-05-30T08:35:39.261Z,41.49
2019-05-30T08:36:26.241Z,41.49
2019-05-30T08:37:25.182Z,40.89
2019-05-30T08:38:25.172Z,41.82
2019-05-30T08:39:25.165Z,41.01
2019-05-30T08:40:25.152Z,41.61
2019-05-30T08:41:25.169Z,40.91
2019-05-30T08:42:27.882Z,40.89
2019-05-30T08:43:25.117Z,40.69
2019-05-30T08:44:25.111Z,41.31
2019-05-30T08:45:25.096Z,40.89
2019-05-30T08:46:25.121Z,40.89
2019-05-30T08:47:25.075Z,41.29
2019-05-30T08:48:25.068Z,40.89
2019-05-30T08:49:25.058Z,40.89
2019-05-30T08:50:25.049Z,41.61
2019-05-30T08:51:25.040Z,41.09
2019-05-30T08:52:25.041Z,40.89
2019-05-30T08:53:25.023Z,40.89
2019-05-30T08:54:25.008Z,41.01
2019-05-30T08:55:24.991Z,41.09
2019-05-30T08:56:28.334Z,41.09
2019-05-30T08:57:25.008Z,41.09
2019-05-30T08:58:24.964Z,40.79
2019-05-30T08:59:24.955Z,40.99
2019-05-30T09:00:24.942Z,41.09
2019-05-30T09:01:24.938Z,40.69
2019-05-30T09:02:24.931Z,41.29
2019-05-30T09:03:24.917Z,40.49
2019-05-30T09:04:24.898Z,40.39
2019-05-30T09:05:24.888Z,40.59
2019-05-30T09:06:24.886Z,40.69
2019-05-30T09:07:24.906Z,41.09
2019-05-30T09:08:24.860Z,40.39
2019-05-30T09:09:24.849Z,40.79
2019-05-30T09:10:24.833Z,40.89
2019-05-30T09:11:24.827Z,40.69
2019-05-30T09:12:24.837Z,40.49
2019-05-30T09:13:24.806Z,40.69
2019-05-30T09:14:24.793Z,40.89
2019-05-30T09:15:24.790Z,41.29
2019-05-30T09:16:24.783Z,40.39
2019-05-30T09:17:24.799Z,40.39
2019-05-30T09:18:24.755Z,41.19
2019-05-30T09:19:24.749Z,40.69
2019-05-30T09:20:24.768Z,40.39
2019-05-30T09:21:24.729Z,40.79
2019-05-30T09:22:24.729Z,40.49
2019-05-30T09:23:24.715Z,40.69
2019-05-30T09:24:24.710Z,41.19
2019-05-30T09:25:24.683Z,40.89
2019-05-30T09:26:24.688Z,40.89
2019-05-30T09:27:24.678Z,40.59
2019-05-30T09:28:24.656Z,40.39
2019-05-30T09:29:24.650Z,40.89
2019-05-30T09:30:24.633Z,40.49
2019-05-30T09:31:24.630Z,40.39
2019-05-30T09:32:24.631Z,40.29
2019-05-30T09:33:24.596Z,40.49
2019-05-30T09:34:24.590Z,40.89
2019-05-30T09:35:24.585Z,40.89
2019-05-30T09:36:24.574Z,40.69
2019-05-30T09:37:24.595Z,40.79
2019-05-30T09:38:24.551Z,40.29
2019-05-30T09:39:24.539Z,40.79
2019-05-30T09:40:24.529Z,40.39
2019-05-30T09:41:24.520Z,40.49
2019-05-30T09:42:24.523Z,40.79
2019-05-30T09:43:24.508Z,40.79
2019-05-30T09:44:24.496Z,40.99
2019-05-30T09:45:24.484Z,40.99
2019-05-30T09:46:24.472Z,40.79
2019-05-30T09:47:24.469Z,40.69
2019-05-30T09:48:24.448Z,40.79
2019-05-30T09:49:24.435Z,40.77
2019-05-30T09:50:24.425Z,41.07
2019-05-30T09:51:24.429Z,40.87
2019-05-30T09:52:24.426Z,40.69
2019-05-30T09:53:24.390Z,40.69
2019-05-30T09:54:24.394Z,40.47
2019-05-30T09:55:24.372Z,40.59
2019-05-30T09:56:24.371Z,40.27
2019-05-30T09:57:24.352Z,40.27
2019-05-30T09:58:24.363Z,40.67
2019-05-30T09:59:24.354Z,40.37
2019-05-30T10:00:24.328Z,40.57
2019-05-30T10:01:24.310Z,40.77
2019-05-30T10:02:24.309Z,40.67
2019-05-30T10:03:24.308Z,40.77
2019-05-30T10:04:24.284Z,40.77
2019-05-30T10:05:24.997Z,40.77
2019-05-30T10:06:29.446Z,40.77
2019-05-30T10:07:25.250Z,40.67
2019-05-30T10:08:24.258Z,40.27
2019-05-30T10:09:24.229Z,40.97
2019-05-30T10:10:24.243Z,40.77
2019-05-30T10:11:24.293Z,40.67
2019-05-30T10:12:24.206Z,40.37
2019-05-30T10:13:24.208Z,40.57
2019-05-30T10:14:24.180Z,40.37
2019-05-30T10:15:24.183Z,40.57
2019-05-30T10:16:24.159Z,40.47
2019-05-30T10:17:24.147Z,40.97
2019-05-30T10:18:24.150Z,40.67
2019-05-30T10:19:24.163Z,40.77
2019-05-30T10:20:24.231Z,40.67
2019-05-30T10:21:24.107Z,40.47
2019-05-30T10:22:24.104Z,40.67
2019-05-30T10:23:24.108Z,40.67
2019-05-30T10:24:24.074Z,40.87
2019-05-30T10:25:24.243Z,40.47
2019-05-30T10:26:24.063Z,40.87
2019-05-30T10:27:24.048Z,40.87
2019-05-30T10:28:24.049Z,40.67
2019-05-30T10:29:24.024Z,41.07
2019-05-30T10:30:24.012Z,41.07
2019-05-30T10:31:24.004Z,40.97
2019-05-30T10:32:23.992Z,40.67
2019-05-30T10:33:24.208Z,40.37
2019-05-30T10:34:23.981Z,40.77
2019-05-30T10:35:23.967Z,40.87
2019-05-30T10:36:23.953Z,41.17
2019-05-30T10:37:23.940Z,40.77
2019-05-30T10:38:23.940Z,41.07
2019-05-30T10:39:23.921Z,40.97
2019-05-30T10:40:23.909Z,41.15
2019-05-30T10:41:23.905Z,40.87
2019-05-30T10:42:23.891Z,41.07
2019-05-30T10:43:23.894Z,41.07
2019-05-30T10:44:23.869Z,40.85
2019-05-30T10:45:23.873Z,40.57
2019-05-30T10:46:23.855Z,40.87
2019-05-30T10:47:23.841Z,40.65
2019-05-30T10:48:23.848Z,40.87
2019-05-30T10:49:34.134Z,40.87
2019-05-30T10:50:24.804Z,40.85
2019-05-30T10:51:23.799Z,41.05
2019-05-30T10:52:23.787Z,40.65
2019-05-30T10:53:23.811Z,40.77
2019-05-30T10:54:23.773Z,40.95
2019-05-30T10:55:23.753Z,40.77
2019-05-30T10:56:24.493Z,40.97
2019-05-30T10:57:23.735Z,40.65
2019-05-30T10:58:23.744Z,40.97
2019-05-30T10:59:23.758Z,41.05
2019-05-30T11:00:23.706Z,40.97
2019-05-30T11:01:23.695Z,40.95
2019-05-30T11:02:23.694Z,40.87
2019-05-30T11:03:23.685Z,41.15
2019-05-30T11:04:23.659Z,40.77
2019-05-30T11:05:23.655Z,40.87
2019-05-30T11:06:23.654Z,40.95
2019-05-30T11:07:23.713Z,40.75
2019-05-30T11:08:24.063Z,40.97
2019-05-30T11:09:23.614Z,40.95
2019-05-30T11:10:23.610Z,40.95
2019-05-30T11:11:23.596Z,40.75
2019-05-30T11:12:23.579Z,40.57
2019-05-30T11:13:23.594Z,40.95
2019-05-30T11:14:23.572Z,40.85
2019-05-30T11:15:23.566Z,40.65
2019-05-30T11:16:23.543Z,40.95
2019-05-30T11:17:23.589Z,40.65
2019-05-30T11:18:23.539Z,40.95
2019-05-30T11:19:23.579Z,40.85
2019-05-30T11:20:23.507Z,40.95
2019-05-30T11:21:23.546Z,40.75
2019-05-30T11:22:23.514Z,40.95
2019-05-30T11:23:23.479Z,41.05
2019-05-30T11:24:23.514Z,40.85
2019-05-30T11:25:23.491Z,40.75
2019-05-30T11:26:23.481Z,41.25
2019-05-30T11:27:23.441Z,40.95
2019-05-30T11:28:23.425Z,40.95
2019-05-30T11:29:23.431Z,40.95
2019-05-30T11:30:23.405Z,41.15
2019-05-30T11:31:23.390Z,40.55
2019-05-30T11:32:23.380Z,40.45
2019-05-30T11:33:23.374Z,40.95
2019-05-30T11:34:24.033Z,40.65
2019-05-30T11:35:23.351Z,41.05
2019-05-30T11:36:23.340Z,41.05
2019-05-30T11:37:23.326Z,40.95
2019-05-30T11:38:23.325Z,40.85
2019-05-30T11:39:23.353Z,40.75
2019-05-30T11:40:23.344Z,40.95
2019-05-30T11:41:23.294Z,41.05
2019-05-30T11:42:23.287Z,40.75
2019-05-30T11:43:23.266Z,40.85
2019-05-30T11:44:23.257Z,40.95
2019-05-30T11:45:23.262Z,40.95
2019-05-30T11:46:23.249Z,40.95
2019-05-30T11:47:23.224Z,40.95
2019-05-30T11:48:23.214Z,41.25
2019-05-30T11:49:23.231Z,40.95
2019-05-30T11:50:23.217Z,41.25
2019-05-30T11:51:23.186Z,40.95
2019-05-30T11:52:23.175Z,40.75
2019-05-30T11:53:23.162Z,40.63
2019-05-30T11:54:23.156Z,40.95
2019-05-30T11:55:23.160Z,40.95
2019-05-30T11:56:23.127Z,40.95
2019-05-30T11:57:23.129Z,40.75
2019-05-30T11:58:23.109Z,41.25
2019-05-30T11:59:23.097Z,40.93
2019-05-30T12:00:23.101Z,40.65
2019-05-30T12:01:23.080Z,40.83
2019-05-30T12:02:23.069Z,41.05
2019-05-30T12:03:23.069Z,40.93
2019-05-30T12:04:23.043Z,40.65
2019-05-30T12:05:23.078Z,40.75
2019-05-30T12:06:23.035Z,41.03
2019-05-30T12:07:35.841Z,41.05
2019-05-30T12:08:24.014Z,40.65
2019-05-30T12:09:23.012Z,40.73
2019-05-30T12:10:23.015Z,40.65
2019-05-30T12:11:22.990Z,40.55
2019-05-30T12:12:22.977Z,40.63
2019-05-30T12:13:22.960Z,41.03
2019-05-30T12:14:22.946Z,40.83
2019-05-30T12:15:22.940Z,41.03
2019-05-30T12:16:22.927Z,40.33
2019-05-30T12:17:22.917Z,40.93
2019-05-30T12:18:22.910Z,40.93
2019-05-30T12:19:22.947Z,40.93
2019-05-30T12:20:22.893Z,40.63
2019-05-30T12:21:22.870Z,40.93
2019-05-30T12:22:22.863Z,40.13
2019-05-30T12:23:22.852Z,40.43
2019-05-30T12:24:22.861Z,41.24
2019-05-30T12:25:22.855Z,40.43
2019-05-30T12:26:22.813Z,40.63
2019-05-30T12:27:22.806Z,40.93
2019-05-30T12:28:22.794Z,40.93
2019-05-30T12:29:22.784Z,40.63
2019-05-30T12:30:22.784Z,40.93
2019-05-30T12:31:22.756Z,40.73
2019-05-30T12:32:22.769Z,41.03
2019-05-30T12:33:22.739Z,40.63
2019-05-30T12:34:22.721Z,41.21
2019-05-30T12:35:22.734Z,41.02
2019-05-30T12:36:22.709Z,41.24
2019-05-30T12:37:23.620Z,41.52
2019-05-30T12:38:22.682Z,40.81
2019-05-30T12:39:22.678Z,40.52
2019-05-30T12:40:22.678Z,40.81
2019-05-30T12:41:22.650Z,40.61
2019-05-30T12:42:22.642Z,40.52
2019-05-30T12:43:22.628Z,41.63
2019-05-30T12:44:22.622Z,40.91
2019-05-30T12:45:22.625Z,41.41
2019-05-30T12:46:22.611Z,41.71
2019-05-30T12:47:22.586Z,41.21
2019-05-30T12:48:22.581Z,40.53
2019-05-30T12:49:22.568Z,40.63
2019-05-30T12:50:22.579Z,40.22
2019-05-30T12:51:22.545Z,41.41
2019-05-30T12:52:22.531Z,41.52